sensor_id;sensor_type;location;lat;lon;timestamp;temperature;humidity
57058;DHT22;55017;52.848;6.748;2023-07-13T00:01:49;15.60;99.90
57058;DHT22;55017;52.848;6.748;2023-07-13T00:04:20;15.60;99.90
57058;DHT22;55017;52.848;6.748;2023-07-13T00:06:46;15.60;99.90
57058;DHT22;55017;52.848;6.748;2023-07-13T00:09:16;15.60;99.90
57058;DHT22;55017;52.848;6.748;2023-07-13T00:11:42;15.80;99.90
57058;DHT22;55017;52.848;6.748;2023-07-13T00:14:09;15.60;99.90
57058;DHT22;55017;52.848;6.748;2023-07-13T00:16:37;15.60;99.90
57058;DHT22;55017;52.848;6.748;2023-07-13T00:19:03;15.60;99.90
57058;DHT22;55017;52.848;6.748;2023-07-13T00:21:29;15.70;99.90
57058;DHT22;55017;52.848;6.748;2023-07-13T00:23:54;15.70;99.90
57058;DHT22;55017;52.848;6.748;2023-07-13T00:26:20;15.70;99.90
57058;DHT22;55017;52.848;6.748;2023-07-13T00:28:46;15.70;99.90
57058;DHT22;55017;52.848;6.748;2023-07-13T00:31:13;15.70;99.90
57058;DHT22;55017;52.848;6.748;2023-07-13T00:33:40;15.70;99.90
57058;DHT22;55017;52.848;6.748;2023-07-13T00:36:06;15.70;99.90
57058;DHT22;55017;52.848;6.748;2023-07-13T00:38:32;15.60;99.90
57058;DHT22;55017;52.848;6.748;2023-07-13T00:40:58;15.60;99.90
57058;DHT22;55017;52.848;6.748;2023-07-13T00:43:27;15.70;99.90
57058;DHT22;55017;52.848;6.748;2023-07-13T00:48:21;15.70;99.90
57058;DHT22;55017;52.848;6.748;2023-07-13T00:50:52;15.70;99.90
57058;DHT22;55017;52.848;6.748;2023-07-13T00:53:19;15.70;99.90
57058;DHT22;55017;52.848;6.748;2023-07-13T00:55:47;15.70;99.90
57058;DHT22;55017;52.848;6.748;2023-07-13T00:58:14;15.80;99.90
57058;DHT22;55017;52.848;6.748;2023-07-13T01:00:41;15.70;99.90
57058;DHT22;55017;52.848;6.748;2023-07-13T01:03:07;15.80;99.90
57058;DHT22;55017;52.848;6.748;2023-07-13T01:05:34;15.80;99.90
57058;DHT22;55017;52.848;6.748;2023-07-13T01:08:01;15.80;99.90
57058;DHT22;55017;52.848;6.748;2023-07-13T01:10:27;15.80;99.90
57058;DHT22;55017;52.848;6.748;2023-07-13T01:12:53;15.80;99.90
57058;DHT22;55017;52.848;6.748;2023-07-13T01:15:42;15.80;99.90
57058;DHT22;55017;52.848;6.748;2023-07-13T01:18:24;15.90;99.90
57058;DHT22;55017;52.848;6.748;2023-07-13T01:20:54;15.80;99.90
57058;DHT22;55017;52.848;6.748;2023-07-13T01:23:21;15.90;99.90
57058;DHT22;55017;52.848;6.748;2023-07-13T01:25:46;15.80;99.90
57058;DHT22;55017;52.848;6.748;2023-07-13T01:28:12;15.90;99.90
57058;DHT22;55017;52.848;6.748;2023-07-13T01:30:39;15.80;99.90
57058;DHT22;55017;52.848;6.748;2023-07-13T01:33:07;15.90;99.90
57058;DHT22;55017;52.848;6.748;2023-07-13T01:35:33;15.90;99.90
57058;DHT22;55017;52.848;6.748;2023-07-13T01:37:58;15.80;99.90
57058;DHT22;55017;52.848;6.748;2023-07-13T01:40:25;15.80;99.90
57058;DHT22;55017;52.848;6.748;2023-07-13T01:42:51;15.80;99.90
57058;DHT22;55017;52.848;6.748;2023-07-13T01:45:16;15.80;99.90
57058;DHT22;55017;52.848;6.748;2023-07-13T01:47:42;15.80;99.90
57058;DHT22;55017;52.848;6.748;2023-07-13T01:50:08;16.00;99.90
57058;DHT22;55017;52.848;6.748;2023-07-13T01:52:34;15.80;99.90
57058;DHT22;55017;52.848;6.748;2023-07-13T01:54:59;15.90;99.90
57058;DHT22;55017;52.848;6.748;2023-07-13T01:57:25;15.80;99.90
57058;DHT22;55017;52.848;6.748;2023-07-13T01:59:50;16.00;99.90
57058;DHT22;55017;52.848;6.748;2023-07-13T02:02:16;15.90;99.90
57058;DHT22;55017;52.848;6.748;2023-07-13T02:04:41;15.90;99.90
57058;DHT22;55017;52.848;6.748;2023-07-13T02:07:08;15.90;99.90
57058;DHT22;55017;52.848;6.748;2023-07-13T02:09:34;15.90;99.90
57058;DHT22;55017;52.848;6.748;2023-07-13T02:12:00;15.90;99.90
57058;DHT22;55017;52.848;6.748;2023-07-13T02:14:26;15.90;99.90
57058;DHT22;55017;52.848;6.748;2023-07-13T02:16:52;15.80;99.90
57058;DHT22;55017;52.848;6.748;2023-07-13T02:19:17;15.90;99.90
57058;DHT22;55017;52.848;6.748;2023-07-13T02:21:43;15.80;99.90
57058;DHT22;55017;52.848;6.748;2023-07-13T02:24:08;15.80;99.90
57058;DHT22;55017;52.848;6.748;2023-07-13T02:26:34;15.80;99.90
57058;DHT22;55017;52.848;6.748;2023-07-13T02:28:59;15.60;99.90
57058;DHT22;55017;52.848;6.748;2023-07-13T02:31:25;15.80;99.90
57058;DHT22;55017;52.848;6.748;2023-07-13T02:33:51;15.70;99.90
57058;DHT22;55017;52.848;6.748;2023-07-13T02:36:16;15.70;99.90
57058;DHT22;55017;52.848;6.748;2023-07-13T02:38:42;15.70;99.90
57058;DHT22;55017;52.848;6.748;2023-07-13T02:41:08;15.70;99.90
57058;DHT22;55017;52.848;6.748;2023-07-13T02:43:35;15.70;99.90
57058;DHT22;55017;52.848;6.748;2023-07-13T02:46:01;15.70;99.90
57058;DHT22;55017;52.848;6.748;2023-07-13T02:48:32;15.60;99.90
57058;DHT22;55017;52.848;6.748;2023-07-13T02:50:58;15.60;99.90
57058;DHT22;55017;52.848;6.748;2023-07-13T02:53:23;15.60;99.90
57058;DHT22;55017;52.848;6.748;2023-07-13T02:55:49;15.50;99.90
57058;DHT22;55017;52.848;6.748;2023-07-13T02:58:15;15.50;99.90
57058;DHT22;55017;52.848;6.748;2023-07-13T03:00:43;15.60;99.90
57058;DHT22;55017;52.848;6.748;2023-07-13T03:03:09;15.50;99.90
57058;DHT22;55017;52.848;6.748;2023-07-13T03:05:37;15.50;99.90
57058;DHT22;55017;52.848;6.748;2023-07-13T03:08:03;15.50;99.90
57058;DHT22;55017;52.848;6.748;2023-07-13T03:10:29;15.50;99.90
57058;DHT22;55017;52.848;6.748;2023-07-13T03:12:55;15.50;99.90
57058;DHT22;55017;52.848;6.748;2023-07-13T03:15:20;15.60;99.90
57058;DHT22;55017;52.848;6.748;2023-07-13T03:17:46;15.50;99.90
57058;DHT22;55017;52.848;6.748;2023-07-13T03:20:12;15.60;99.90
57058;DHT22;55017;52.848;6.748;2023-07-13T03:22:37;15.60;99.90
57058;DHT22;55017;52.848;6.748;2023-07-13T03:25:04;15.60;99.90
57058;DHT22;55017;52.848;6.748;2023-07-13T03:27:30;15.50;99.90
57058;DHT22;55017;52.848;6.748;2023-07-13T03:29:55;15.70;99.90
57058;DHT22;55017;52.848;6.748;2023-07-13T03:32:21;15.60;99.90
57058;DHT22;55017;52.848;6.748;2023-07-13T03:34:46;15.70;99.90
57058;DHT22;55017;52.848;6.748;2023-07-13T03:37:12;15.60;99.90
57058;DHT22;55017;52.848;6.748;2023-07-13T03:39:37;15.70;99.90
57058;DHT22;55017;52.848;6.748;2023-07-13T03:42:03;15.70;99.90
57058;DHT22;55017;52.848;6.748;2023-07-13T03:44:29;15.60;99.90
57058;DHT22;55017;52.848;6.748;2023-07-13T03:46:55;15.70;99.90
57058;DHT22;55017;52.848;6.748;2023-07-13T03:49:20;15.60;99.90
57058;DHT22;55017;52.848;6.748;2023-07-13T03:51:46;15.70;99.90
57058;DHT22;55017;52.848;6.748;2023-07-13T03:54:11;15.70;99.90
57058;DHT22;55017;52.848;6.748;2023-07-13T03:56:37;15.70;99.90
57058;DHT22;55017;52.848;6.748;2023-07-13T03:59:02;15.70;99.90
57058;DHT22;55017;52.848;6.748;2023-07-13T04:01:28;15.70;99.90
57058;DHT22;55017;52.848;6.748;2023-07-13T04:03:54;15.40;99.90
57058;DHT22;55017;52.848;6.748;2023-07-13T04:06:23;15.90;99.90
57058;DHT22;55017;52.848;6.748;2023-07-13T04:08:52;15.80;99.90
57058;DHT22;55017;52.848;6.748;2023-07-13T04:11:19;15.80;99.90
57058;DHT22;55017;52.848;6.748;2023-07-13T04:13:45;16.40;99.90
57058;DHT22;55017;52.848;6.748;2023-07-13T04:16:12;16.20;99.90
57058;DHT22;55017;52.848;6.748;2023-07-13T04:18:38;15.90;99.90
57058;DHT22;55017;52.848;6.748;2023-07-13T04:21:03;15.90;99.90
57058;DHT22;55017;52.848;6.748;2023-07-13T04:23:29;15.80;99.90
57058;DHT22;55017;52.848;6.748;2023-07-13T04:25:55;15.70;99.90
57058;DHT22;55017;52.848;6.748;2023-07-13T04:28:24;15.70;99.90
57058;DHT22;55017;52.848;6.748;2023-07-13T04:30:51;15.60;99.90
57058;DHT22;55017;52.848;6.748;2023-07-13T04:33:17;15.60;99.90
57058;DHT22;55017;52.848;6.748;2023-07-13T04:35:43;15.70;99.90
57058;DHT22;55017;52.848;6.748;2023-07-13T04:38:09;15.60;99.90
57058;DHT22;55017;52.848;6.748;2023-07-13T04:40:36;15.60;99.90
57058;DHT22;55017;52.848;6.748;2023-07-13T04:43:02;15.60;99.90
57058;DHT22;55017;52.848;6.748;2023-07-13T04:45:27;15.50;99.90
57058;DHT22;55017;52.848;6.748;2023-07-13T04:47:53;15.50;99.90
57058;DHT22;55017;52.848;6.748;2023-07-13T04:50:19;15.40;99.90
57058;DHT22;55017;52.848;6.748;2023-07-13T04:52:49;15.40;99.90
57058;DHT22;55017;52.848;6.748;2023-07-13T04:55:15;15.50;99.90
57058;DHT22;55017;52.848;6.748;2023-07-13T04:57:41;15.60;99.90
57058;DHT22;55017;52.848;6.748;2023-07-13T05:00:07;15.50;99.90
57058;DHT22;55017;52.848;6.748;2023-07-13T05:02:34;15.50;99.90
57058;DHT22;55017;52.848;6.748;2023-07-13T05:05:01;15.90;99.90
57058;DHT22;55017;52.848;6.748;2023-07-13T05:07:26;15.60;99.90
57058;DHT22;55017;52.848;6.748;2023-07-13T05:09:52;15.60;99.90
57058;DHT22;55017;52.848;6.748;2023-07-13T05:12:18;15.60;99.90
57058;DHT22;55017;52.848;6.748;2023-07-13T05:14:44;15.60;99.90
57058;DHT22;55017;52.848;6.748;2023-07-13T05:17:10;15.70;99.90
57058;DHT22;55017;52.848;6.748;2023-07-13T05:19:36;15.80;99.90
57058;DHT22;55017;52.848;6.748;2023-07-13T05:22:02;15.90;99.90
57058;DHT22;55017;52.848;6.748;2023-07-13T05:24:28;15.90;99.90
57058;DHT22;55017;52.848;6.748;2023-07-13T05:26:54;15.90;99.90
57058;DHT22;55017;52.848;6.748;2023-07-13T05:29:20;16.00;99.90
57058;DHT22;55017;52.848;6.748;2023-07-13T05:31:46;16.00;99.90
57058;DHT22;55017;52.848;6.748;2023-07-13T05:34:12;16.00;99.90
57058;DHT22;55017;52.848;6.748;2023-07-13T05:36:38;16.10;99.90
57058;DHT22;55017;52.848;6.748;2023-07-13T05:39:04;16.10;99.90
57058;DHT22;55017;52.848;6.748;2023-07-13T05:41:30;16.20;99.90
57058;DHT22;55017;52.848;6.748;2023-07-13T05:43:55;16.30;99.90
57058;DHT22;55017;52.848;6.748;2023-07-13T05:46:21;16.30;99.90
57058;DHT22;55017;52.848;6.748;2023-07-13T05:48:47;16.40;99.90
57058;DHT22;55017;52.848;6.748;2023-07-13T05:51:13;16.50;99.90
57058;DHT22;55017;52.848;6.748;2023-07-13T05:53:39;16.40;99.90
57058;DHT22;55017;52.848;6.748;2023-07-13T05:56:04;16.60;99.90
57058;DHT22;55017;52.848;6.748;2023-07-13T05:58:30;17.30;99.90
57058;DHT22;55017;52.848;6.748;2023-07-13T06:01:01;17.10;99.90
57058;DHT22;55017;52.848;6.748;2023-07-13T06:03:27;17.00;99.90
57058;DHT22;55017;52.848;6.748;2023-07-13T06:05:52;17.00;99.90
57058;DHT22;55017;52.848;6.748;2023-07-13T06:08:18;17.00;99.90
57058;DHT22;55017;52.848;6.748;2023-07-13T06:10:43;17.00;99.90
57058;DHT22;55017;52.848;6.748;2023-07-13T06:13:09;17.00;99.90
57058;DHT22;55017;52.848;6.748;2023-07-13T06:15:34;17.10;99.90
57058;DHT22;55017;52.848;6.748;2023-07-13T06:18:00;17.20;99.90
57058;DHT22;55017;52.848;6.748;2023-07-13T06:20:25;17.30;99.90
57058;DHT22;55017;52.848;6.748;2023-07-13T06:22:51;17.50;99.90
57058;DHT22;55017;52.848;6.748;2023-07-13T06:25:17;17.60;99.90
57058;DHT22;55017;52.848;6.748;2023-07-13T06:27:43;17.60;99.90
57058;DHT22;55017;52.848;6.748;2023-07-13T06:30:08;17.70;99.90
57058;DHT22;55017;52.848;6.748;2023-07-13T06:32:34;17.70;99.90
57058;DHT22;55017;52.848;6.748;2023-07-13T06:35:00;17.90;99.90
57058;DHT22;55017;52.848;6.748;2023-07-13T06:37:25;18.10;99.90
57058;DHT22;55017;52.848;6.748;2023-07-13T06:39:51;18.10;99.90
57058;DHT22;55017;52.848;6.748;2023-07-13T06:42:16;18.20;99.90
57058;DHT22;55017;52.848;6.748;2023-07-13T06:44:42;18.20;99.90
57058;DHT22;55017;52.848;6.748;2023-07-13T06:47:08;18.40;99.90
57058;DHT22;55017;52.848;6.748;2023-07-13T06:49:34;18.40;99.90
57058;DHT22;55017;52.848;6.748;2023-07-13T06:51:59;18.50;99.90
57058;DHT22;55017;52.848;6.748;2023-07-13T06:54:25;18.50;99.90
57058;DHT22;55017;52.848;6.748;2023-07-13T06:56:50;18.70;99.90
57058;DHT22;55017;52.848;6.748;2023-07-13T06:59:16;19.00;99.90
57058;DHT22;55017;52.848;6.748;2023-07-13T07:01:41;19.00;99.90
57058;DHT22;55017;52.848;6.748;2023-07-13T07:04:07;19.00;99.90
57058;DHT22;55017;52.848;6.748;2023-07-13T07:06:33;18.90;99.90
57058;DHT22;55017;52.848;6.748;2023-07-13T07:08:58;18.80;99.90
57058;DHT22;55017;52.848;6.748;2023-07-13T07:11:25;19.00;99.90
57058;DHT22;55017;52.848;6.748;2023-07-13T07:13:52;19.40;99.90
57058;DHT22;55017;52.848;6.748;2023-07-13T07:16:18;19.10;99.90
57058;DHT22;55017;52.848;6.748;2023-07-13T07:18:44;19.10;99.90
57058;DHT22;55017;52.848;6.748;2023-07-13T07:21:10;19.10;99.90
57058;DHT22;55017;52.848;6.748;2023-07-13T07:23:36;19.10;99.90
57058;DHT22;55017;52.848;6.748;2023-07-13T07:26:02;19.10;99.90
57058;DHT22;55017;52.848;6.748;2023-07-13T07:28:27;19.10;99.90
57058;DHT22;55017;52.848;6.748;2023-07-13T07:30:57;19.00;99.90
57058;DHT22;55017;52.848;6.748;2023-07-13T07:33:24;19.00;99.90
57058;DHT22;55017;52.848;6.748;2023-07-13T07:35:50;19.00;99.90
57058;DHT22;55017;52.848;6.748;2023-07-13T07:38:15;19.10;99.90
57058;DHT22;55017;52.848;6.748;2023-07-13T07:40:41;18.90;99.90
57058;DHT22;55017;52.848;6.748;2023-07-13T07:43:11;19.00;99.90
57058;DHT22;55017;52.848;6.748;2023-07-13T07:45:38;18.90;99.90
57058;DHT22;55017;52.848;6.748;2023-07-13T07:48:05;18.90;99.90
57058;DHT22;55017;52.848;6.748;2023-07-13T07:50:31;18.90;99.90
57058;DHT22;55017;52.848;6.748;2023-07-13T07:52:57;18.80;99.90
57058;DHT22;55017;52.848;6.748;2023-07-13T07:55:22;19.00;99.90
57058;DHT22;55017;52.848;6.748;2023-07-13T07:57:49;18.70;99.90
57058;DHT22;55017;52.848;6.748;2023-07-13T08:00:15;18.80;99.90
57058;DHT22;55017;52.848;6.748;2023-07-13T08:02:41;18.80;99.90
57058;DHT22;55017;52.848;6.748;2023-07-13T08:05:10;18.90;99.90
57058;DHT22;55017;52.848;6.748;2023-07-13T08:07:36;19.00;99.90
57058;DHT22;55017;52.848;6.748;2023-07-13T08:10:01;18.90;99.90
57058;DHT22;55017;52.848;6.748;2023-07-13T08:12:27;18.90;99.90
57058;DHT22;55017;52.848;6.748;2023-07-13T08:14:53;19.00;99.90
57058;DHT22;55017;52.848;6.748;2023-07-13T08:17:20;19.20;99.90
57058;DHT22;55017;52.848;6.748;2023-07-13T08:19:45;19.20;99.90
57058;DHT22;55017;52.848;6.748;2023-07-13T08:22:11;19.30;99.90
57058;DHT22;55017;52.848;6.748;2023-07-13T08:24:37;19.10;99.90
57058;DHT22;55017;52.848;6.748;2023-07-13T08:27:03;19.20;99.90
57058;DHT22;55017;52.848;6.748;2023-07-13T08:29:28;19.30;99.90
57058;DHT22;55017;52.848;6.748;2023-07-13T08:32:00;19.30;99.90
57058;DHT22;55017;52.848;6.748;2023-07-13T08:34:25;19.30;99.90
57058;DHT22;55017;52.848;6.748;2023-07-13T08:36:51;19.50;99.90
57058;DHT22;55017;52.848;6.748;2023-07-13T08:39:17;19.60;99.90
57058;DHT22;55017;52.848;6.748;2023-07-13T08:41:46;19.70;99.90
57058;DHT22;55017;52.848;6.748;2023-07-13T08:47:16;20.00;99.90
57058;DHT22;55017;52.848;6.748;2023-07-13T08:49:43;19.80;99.90
57058;DHT22;55017;52.848;6.748;2023-07-13T08:52:38;19.50;99.90
57058;DHT22;55017;52.848;6.748;2023-07-13T08:55:21;19.40;99.90
57058;DHT22;55017;52.848;6.748;2023-07-13T08:57:54;19.10;99.90
57058;DHT22;55017;52.848;6.748;2023-07-13T09:00:38;18.90;99.90
57058;DHT22;55017;52.848;6.748;2023-07-13T09:03:12;18.60;99.90
57058;DHT22;55017;52.848;6.748;2023-07-13T09:05:46;18.40;99.90
57058;DHT22;55017;52.848;6.748;2023-07-13T09:08:55;18.30;99.90
57058;DHT22;55017;52.848;6.748;2023-07-13T09:14:15;17.90;99.90
57058;DHT22;55017;52.848;6.748;2023-07-13T09:16:48;17.80;99.90
57058;DHT22;55017;52.848;6.748;2023-07-13T09:19:27;17.80;99.90
57058;DHT22;55017;52.848;6.748;2023-07-13T09:21:54;17.70;99.90
57058;DHT22;55017;52.848;6.748;2023-07-13T09:27:17;17.60;99.90
57058;DHT22;55017;52.848;6.748;2023-07-13T09:29:49;17.40;99.90
57058;DHT22;55017;52.848;6.748;2023-07-13T09:32:18;17.30;99.90
57058;DHT22;55017;52.848;6.748;2023-07-13T09:34:53;17.20;99.90
57058;DHT22;55017;52.848;6.748;2023-07-13T09:37:27;17.00;99.90
57058;DHT22;55017;52.848;6.748;2023-07-13T09:39:54;16.70;99.90
57058;DHT22;55017;52.848;6.748;2023-07-13T09:42:22;16.70;99.90
57058;DHT22;55017;52.848;6.748;2023-07-13T09:47:18;16.40;99.90
57058;DHT22;55017;52.848;6.748;2023-07-13T09:49:44;16.30;99.90
57058;DHT22;55017;52.848;6.748;2023-07-13T09:52:14;16.10;99.90
57058;DHT22;55017;52.848;6.748;2023-07-13T09:54:43;16.00;99.90
57058;DHT22;55017;52.848;6.748;2023-07-13T09:57:18;16.70;99.90
57058;DHT22;55017;52.848;6.748;2023-07-13T09:59:47;16.30;99.90
57058;DHT22;55017;52.848;6.748;2023-07-13T10:02:36;16.30;99.90
57058;DHT22;55017;52.848;6.748;2023-07-13T10:05:05;16.20;99.90
57058;DHT22;55017;52.848;6.748;2023-07-13T10:07:32;16.50;99.90
57058;DHT22;55017;52.848;6.748;2023-07-13T10:10:03;16.60;99.90
57058;DHT22;55017;52.848;6.748;2023-07-13T10:12:30;16.80;99.90
57058;DHT22;55017;52.848;6.748;2023-07-13T10:15:01;17.20;99.90
57058;DHT22;55017;52.848;6.748;2023-07-13T10:17:31;17.70;99.90
57058;DHT22;55017;52.848;6.748;2023-07-13T10:20:03;18.10;99.90
57058;DHT22;55017;52.848;6.748;2023-07-13T10:22:58;18.50;99.90
57058;DHT22;55017;52.848;6.748;2023-07-13T10:25:28;18.90;99.90
57058;DHT22;55017;52.848;6.748;2023-07-13T10:28:04;19.40;99.90
57058;DHT22;55017;52.848;6.748;2023-07-13T10:30:35;19.50;99.90
57058;DHT22;55017;52.848;6.748;2023-07-13T10:33:10;20.30;99.90
57058;DHT22;55017;52.848;6.748;2023-07-13T10:35:37;20.30;99.90
57058;DHT22;55017;52.848;6.748;2023-07-13T10:38:15;20.20;99.90
57058;DHT22;55017;52.848;6.748;2023-07-13T10:43:19;21.00;99.90
57058;DHT22;55017;52.848;6.748;2023-07-13T10:45:46;20.90;99.90
57058;DHT22;55017;52.848;6.748;2023-07-13T10:48:16;21.10;99.90
57058;DHT22;55017;52.848;6.748;2023-07-13T10:50:44;21.40;99.90
57058;DHT22;55017;52.848;6.748;2023-07-13T10:53:40;22.20;99.90
57058;DHT22;55017;52.848;6.748;2023-07-13T10:58:44;22.30;99.90
57058;DHT22;55017;52.848;6.748;2023-07-13T11:01:15;22.30;99.90
57058;DHT22;55017;52.848;6.748;2023-07-13T11:03:49;22.50;99.90
57058;DHT22;55017;52.848;6.748;2023-07-13T11:08:57;22.90;99.90
57058;DHT22;55017;52.848;6.748;2023-07-13T11:13:58;23.20;99.90
57058;DHT22;55017;52.848;6.748;2023-07-13T11:21:34;24.00;99.90
57058;DHT22;55017;52.848;6.748;2023-07-13T11:31:41;21.90;99.90
57058;DHT22;55017;52.848;6.748;2023-07-13T11:34:13;21.70;99.90
57058;DHT22;55017;52.848;6.748;2023-07-13T11:36:39;20.40;99.90
57058;DHT22;55017;52.848;6.748;2023-07-13T11:39:35;19.50;99.90
57058;DHT22;55017;52.848;6.748;2023-07-13T11:42:04;19.20;99.90
57058;DHT22;55017;52.848;6.748;2023-07-13T11:44:32;18.80;99.90
57058;DHT22;55017;52.848;6.748;2023-07-13T11:46:58;18.40;99.90
57058;DHT22;55017;52.848;6.748;2023-07-13T11:49:31;18.20;99.90
57058;DHT22;55017;52.848;6.748;2023-07-13T11:51:58;18.00;99.90
57058;DHT22;55017;52.848;6.748;2023-07-13T11:54:25;17.90;99.90
57058;DHT22;55017;52.848;6.748;2023-07-13T11:56:52;18.00;99.90
57058;DHT22;55017;52.848;6.748;2023-07-13T11:59:19;18.20;99.90
57058;DHT22;55017;52.848;6.748;2023-07-13T12:01:51;18.80;99.90
57058;DHT22;55017;52.848;6.748;2023-07-13T12:04:28;19.50;99.90
57058;DHT22;55017;52.848;6.748;2023-07-13T12:07:06;19.70;99.90
57058;DHT22;55017;52.848;6.748;2023-07-13T12:09:33;19.40;99.90
57058;DHT22;55017;52.848;6.748;2023-07-13T12:12:02;19.60;99.90
57058;DHT22;55017;52.848;6.748;2023-07-13T12:14:28;19.60;99.90
57058;DHT22;55017;52.848;6.748;2023-07-13T12:16:54;19.70;99.90
57058;DHT22;55017;52.848;6.748;2023-07-13T12:19:27;19.70;99.90
57058;DHT22;55017;52.848;6.748;2023-07-13T12:21:58;19.70;99.90
57058;DHT22;55017;52.848;6.748;2023-07-13T12:24:25;19.90;99.90
57058;DHT22;55017;52.848;6.748;2023-07-13T12:26:54;20.20;99.90
57058;DHT22;55017;52.848;6.748;2023-07-13T12:29:20;20.10;99.90
57058;DHT22;55017;52.848;6.748;2023-07-13T12:31:47;19.90;99.90
57058;DHT22;55017;52.848;6.748;2023-07-13T12:34:21;19.80;99.90
57058;DHT22;55017;52.848;6.748;2023-07-13T12:36:55;20.00;99.90
57058;DHT22;55017;52.848;6.748;2023-07-13T12:44:43;21.50;99.90
57058;DHT22;55017;52.848;6.748;2023-07-13T12:47:12;21.50;99.90
57058;DHT22;55017;52.848;6.748;2023-07-13T12:49:42;22.20;99.90
57058;DHT22;55017;52.848;6.748;2023-07-13T12:52:31;22.30;99.90
57058;DHT22;55017;52.848;6.748;2023-07-13T12:55:06;22.60;99.90
57058;DHT22;55017;52.848;6.748;2023-07-13T12:57:41;22.90;99.90
57058;DHT22;55017;52.848;6.748;2023-07-13T13:02:45;23.40;99.90
57058;DHT22;55017;52.848;6.748;2023-07-13T13:05:13;23.40;99.90
57058;DHT22;55017;52.848;6.748;2023-07-13T13:07:39;23.70;99.90
57058;DHT22;55017;52.848;6.748;2023-07-13T13:10:12;23.70;99.90
57058;DHT22;55017;52.848;6.748;2023-07-13T13:12:37;23.90;99.90
57058;DHT22;55017;52.848;6.748;2023-07-13T13:15:03;24.00;98.50
57058;DHT22;55017;52.848;6.748;2023-07-13T13:17:32;24.00;96.60
57058;DHT22;55017;52.848;6.748;2023-07-13T13:19:58;24.20;96.20
57058;DHT22;55017;52.848;6.748;2023-07-13T13:22:23;24.40;94.70
57058;DHT22;55017;52.848;6.748;2023-07-13T13:24:49;24.80;91.00
57058;DHT22;55017;52.848;6.748;2023-07-13T13:27:22;24.90;90.50
57058;DHT22;55017;52.848;6.748;2023-07-13T13:29:50;25.20;89.50
57058;DHT22;55017;52.848;6.748;2023-07-13T13:32:17;25.10;86.30
57058;DHT22;55017;52.848;6.748;2023-07-13T13:34:42;24.80;85.50
57058;DHT22;55017;52.848;6.748;2023-07-13T13:37:26;24.60;82.90
57058;DHT22;55017;52.848;6.748;2023-07-13T13:39:52;24.70;84.70
57058;DHT22;55017;52.848;6.748;2023-07-13T13:42:19;24.60;87.10
57058;DHT22;55017;52.848;6.748;2023-07-13T13:44:46;25.20;78.10
57058;DHT22;55017;52.848;6.748;2023-07-13T13:47:32;25.10;76.50
57058;DHT22;55017;52.848;6.748;2023-07-13T13:50:01;25.70;73.50
57058;DHT22;55017;52.848;6.748;2023-07-13T13:52:27;25.40;79.40
57058;DHT22;55017;52.848;6.748;2023-07-13T13:54:53;25.20;76.40
57058;DHT22;55017;52.848;6.748;2023-07-13T13:57:25;25.50;72.20
57058;DHT22;55017;52.848;6.748;2023-07-13T13:59:51;25.40;71.60
57058;DHT22;55017;52.848;6.748;2023-07-13T14:02:26;25.60;71.40
57058;DHT22;55017;52.848;6.748;2023-07-13T14:04:56;25.80;74.20
57058;DHT22;55017;52.848;6.748;2023-07-13T14:07:22;26.40;71.30
57058;DHT22;55017;52.848;6.748;2023-07-13T14:09:48;26.40;68.40
57058;DHT22;55017;52.848;6.748;2023-07-13T14:12:13;25.60;70.10
57058;DHT22;55017;52.848;6.748;2023-07-13T14:14:39;25.50;71.00
57058;DHT22;55017;52.848;6.748;2023-07-13T14:17:19;27.00;66.40
57058;DHT22;55017;52.848;6.748;2023-07-13T14:19:48;27.10;63.80
57058;DHT22;55017;52.848;6.748;2023-07-13T14:22:19;26.20;65.30
57058;DHT22;55017;52.848;6.748;2023-07-13T14:24:46;26.40;62.80
57058;DHT22;55017;52.848;6.748;2023-07-13T14:27:12;27.60;62.80
57058;DHT22;55017;52.848;6.748;2023-07-13T14:29:37;28.70;60.80
57058;DHT22;55017;52.848;6.748;2023-07-13T14:32:03;29.30;58.20
57058;DHT22;55017;52.848;6.748;2023-07-13T14:34:30;29.00;57.20
57058;DHT22;55017;52.848;6.748;2023-07-13T14:36:56;27.70;57.90
57058;DHT22;55017;52.848;6.748;2023-07-13T14:39:23;26.50;60.20
57058;DHT22;55017;52.848;6.748;2023-07-13T14:41:50;25.90;63.10
57058;DHT22;55017;52.848;6.748;2023-07-13T14:44:24;25.70;65.20
57058;DHT22;55017;52.848;6.748;2023-07-13T14:46:51;25.30;67.30
57058;DHT22;55017;52.848;6.748;2023-07-13T14:49:30;24.60;66.60
57058;DHT22;55017;52.848;6.748;2023-07-13T14:52:00;24.30;68.30
57058;DHT22;55017;52.848;6.748;2023-07-13T14:54:26;24.40;68.50
57058;DHT22;55017;52.848;6.748;2023-07-13T14:56:52;24.60;68.50
57058;DHT22;55017;52.848;6.748;2023-07-13T14:59:18;25.10;64.20
57058;DHT22;55017;52.848;6.748;2023-07-13T15:01:48;24.80;65.00
57058;DHT22;55017;52.848;6.748;2023-07-13T15:04:14;24.70;66.10
57058;DHT22;55017;52.848;6.748;2023-07-13T15:06:57;24.70;66.30
57058;DHT22;55017;52.848;6.748;2023-07-13T15:09:23;25.20;65.40
57058;DHT22;55017;52.848;6.748;2023-07-13T15:11:52;25.10;66.40
57058;DHT22;55017;52.848;6.748;2023-07-13T15:14:18;24.80;66.70
57058;DHT22;55017;52.848;6.748;2023-07-13T15:16:44;24.70;67.50
57058;DHT22;55017;52.848;6.748;2023-07-13T15:19:10;24.50;67.00
57058;DHT22;55017;52.848;6.748;2023-07-13T15:21:36;24.30;66.50
57058;DHT22;55017;52.848;6.748;2023-07-13T15:24:02;24.80;64.20
57058;DHT22;55017;52.848;6.748;2023-07-13T15:26:28;24.50;65.80
57058;DHT22;55017;52.848;6.748;2023-07-13T15:28:53;24.90;65.00
57058;DHT22;55017;52.848;6.748;2023-07-13T15:31:26;24.60;65.80
57058;DHT22;55017;52.848;6.748;2023-07-13T15:33:55;24.50;66.30
57058;DHT22;55017;52.848;6.748;2023-07-13T15:36:23;24.40;68.20
57058;DHT22;55017;52.848;6.748;2023-07-13T15:38:52;24.30;65.50
57058;DHT22;55017;52.848;6.748;2023-07-13T15:41:27;24.30;64.50
57058;DHT22;55017;52.848;6.748;2023-07-13T15:43:56;24.80;65.70
57058;DHT22;55017;52.848;6.748;2023-07-13T15:46:27;24.40;65.90
57058;DHT22;55017;52.848;6.748;2023-07-13T15:48:54;24.10;66.10
57058;DHT22;55017;52.848;6.748;2023-07-13T15:51:29;23.90;65.90
57058;DHT22;55017;52.848;6.748;2023-07-13T15:53:58;24.50;63.10
57058;DHT22;55017;52.848;6.748;2023-07-13T15:56:26;24.20;65.60
57058;DHT22;55017;52.848;6.748;2023-07-13T15:58:52;24.10;66.40
57058;DHT22;55017;52.848;6.748;2023-07-13T16:01:19;24.10;66.20
57058;DHT22;55017;52.848;6.748;2023-07-13T16:03:46;24.40;63.00
57058;DHT22;55017;52.848;6.748;2023-07-13T16:06:24;23.90;64.80
57058;DHT22;55017;52.848;6.748;2023-07-13T16:08:52;23.90;66.70
57058;DHT22;55017;52.848;6.748;2023-07-13T16:11:26;24.40;65.40
57058;DHT22;55017;52.848;6.748;2023-07-13T16:13:53;24.30;68.50
57058;DHT22;55017;52.848;6.748;2023-07-13T16:16:26;24.20;68.70
57058;DHT22;55017;52.848;6.748;2023-07-13T16:18:55;24.20;67.80
57058;DHT22;55017;52.848;6.748;2023-07-13T16:21:27;24.60;64.80